Terminal Aerodrome Forecast
Issued by NWS

Home | Current Version | Previous Version | Text Only | Print | Product List | Glossary On
Versions: 1 2 3 4 5 6 7 8 9 10 11 12
000
FTUS45 KSLC 290539
TAFEVW
TAF
KEVW 290539Z 2906/3006 30010KT P6SM SCT080
     FM290700 25009KT P6SM FEW080
     FM291600 28015G23KT P6SM SKC
     FM300300 34010KT P6SM SKC=

USA.gov is the U.S. government's official web portal to all federal, state and local government web resources and services.